< < Back
Terminal Aerodrome Forecast


Current Version              Previous Versions:   1  2  3  4  5  6  7  8  9  

Terminal Aerodrome Forecast

072
FTUS44 KMOB 311100
TAFPNS
TAF
KPNS 311120Z 3112/0112 00000KT P6SM VCSH FEW013
     FM311500 15011KT P6SM VCTS SCT030CB SCT120 BKN200
     FM010100 16004KT P6SM FEW025 SCT120 SCT200=



Latest METAR

825
SAUS70 KWBC 010800 RRW
MTRPNS
METAR KPNS 010753Z AUTO 15004KT 10SM CLR 25/24 A3003 RMK AO2 SLP171
T02500239


USA.gov is the U.S. government's official web portal to all federal, state and local government web resources and services.